^^

Metar de toute la France(point de départ, Chateauroux, classé dans l'ordre alphabétique actualisée toutes les 30 minutes)






LFBA - Agen/, France
Distance de la station: SSO 307km
Mise à jour: 25/04/2014 09:00
nuageux
nuageux
 Wind from O
Vent: O 13 km/h
Température: 11°C
Point de Rosée: 10°C
Humidité: 94%
Baromètre: 1016 hPa
Nuages: nuageux
Visibilité: 10 km
Nuages details: partiellement nuageux 274 m
nuageux 762 m
nuageux 1189 m
2014/04/25 07:00 LFBA 250700Z AUTO 27007KT 9999 SCT009 BKN025 BKN039 11/10 Q1016
LFLP - Annecy/, France
Distance de la station: ESE 352km
Mise à jour: 25/04/2014 09:00
nuageux
nuageux
 Wind from calm
Vent: Vent calme
Température: 12°C
Point de Rosée: 9°C
Humidité: 82%
Baromètre: 1011 hPa
Nuages: nuageux
Visibilité: 10 km
Nuages details: Quelques Nuages 1829 m
nuageux 2134 m
nuageux 6706 m
2014/04/25 07:00 LFLP 250700Z AUTO 00000KT 9999 FEW060 BKN070 BKN220 12/09 Q1011
 
LFOA - Avord/ , France
Distance de la station: ENE 76km
Mise à jour: 25/04/2014 09:00
Couvert
Couvert
 Wind from OSO
Vent: OSO 22 km/h
Température: 11°C
Point de Rosée: 11°C
Humidité: 100%
Baromètre: 1011 hPa
Nuages: Couvert
Visibilité: 7 km
Nuages details: nuageux 183 m
Couvert 305 m
2014/04/25 07:00 LFOA 250700Z AUTO 25012KT 7000 BKN006 OVC010 11/11 Q1011
LFSB - Bale/, France
Distance de la station: ENE 449km
Mise à jour: 25/04/2014 09:00
clair
clair
 Wind from calm
Vent: Vent calme
Température: 13°C
Point de Rosée: 9°C
Humidité: 77%
Baromètre: 1011 hPa
Récapitulatifs: clair
Visibilité: supérieure à 10 km
2014/04/25 07:00 LFSB 250700Z 00000KT CAVOK 13/09 Q1011 NOSIG
 
LFOB - Beauvais/, France
Distance de la station: N 296km
Mise à jour: 25/04/2014 09:00
Broulliard, Orage
Broulliard, Orage
 Wind from calm
Vent: Vent calme
Température: 12°C
Point de Rosée: 11°C
Humidité: 94%
Baromètre: 1009 hPa
Récapitulatifs: Broulliard
Nuages: Orage
Visibilité: 2 km
Nuages details: partiellement nuageux 1311 m
nuageux 1829 m
nuageux 2743 m
2014/04/25 07:00 LFOB 250700Z AUTO 00000KT 2200 BR SCT043/// BKN060/// BKN090/// ///TCU 12/11 Q1009
LFBE - Bergerac/, France
Distance de la station: SSO 240km
Mise à jour: 25/04/2014 09:00
Couvert
Couvert
 Wind from O
Vent: O 11 km/h
Température: 11°C
Point de Rosée: 10°C
Humidité: 94%
Baromètre: 1016 hPa
Nuages: Couvert
Visibilité: 10 km
Nuages details: nuageux 335 m
nuageux 1250 m
Couvert 1951 m
2014/04/25 07:00 LFBE 250700Z AUTO 26006KT 9999 BKN011 BKN041 OVC064 11/10 Q1016
 
LFMU - Beziers/, France
Distance de la station: SSE 411km
Mise à jour: 25/04/2014 09:00
partiellement nuageux
partiellement nuageux
 Wind from O
Vent: O 20 km/h
Température: 13°C
Point de Rosée: 9°C
Humidité: 77%
Baromètre: 1012 hPa
Nuages: partiellement nuageux
Visibilité: 10 km
2014/04/25 07:00 LFMU 250700Z AUTO 27011KT 9999 NSC 13/09 Q1012
LFBZ - Biarritz/, France
Distance de la station: SO 449km
Mise à jour: 25/04/2014 09:00
nuageux
nuageux
 Wind from ONO
Vent: ONO 35 km/h
Température: 12°C
Point de Rosée: 8°C
Humidité: 77%
Baromètre: 1019 hPa
Nuages: nuageux
Visibilité: 10 km
Nuages details: Quelques Nuages 244 m
Quelques Nuages 457 m
nuageux 549 m
nuageux 1524 m
2014/04/25 07:00 LFBZ 250700Z 29019KT 9999 FEW008 FEW015TCU BKN018 BKN050 12/08 Q1019 NOSIG
 
LFBD - Bordeaux/, France
Distance de la station: SO 289km
Mise à jour: 25/04/2014 09:00
Quelques Nuages
Quelques Nuages
 Wind from O
Vent: O 13 km/h
Température: 12°C
Point de Rosée: 9°C
Humidité: 82%
Baromètre: 1017 hPa
Nuages: Quelques Nuages
Visibilité: 10 km
Nuages details: Quelques Nuages 945 m
2014/04/25 07:00 LFBD 250700Z AUTO 28007KT 9999 FEW031 12/09 Q1017
LFAQ - Bray/, France
Distance de la station: N 358km
Mise à jour: 25/04/2014 09:00
Broulliard, Orage
Broulliard, Orage
 Wind from NE
Vent: NE 17 km/h
Température: 13°C
Point de Rosée: 12°C
Humidité: 94%
Baromètre: 1008 hPa
Récapitulatifs: Broulliard
Nuages: Orage
Visibilité: 3 km
2014/04/25 07:00 LFAQ 250700Z AUTO 04009KT 2700 BR ///CB 13/12 Q1008
 
LFRB - Brest/, France
Distance de la station: ONO 492km
Mise à jour: 25/04/2014 09:00
Quelques Nuages
Quelques Nuages
 Wind from variable
Vent: variable 2 km/h
Température: 10°C
Point de Rosée: 10°C
Humidité: 100%
Baromètre: 1014 hPa
Nuages: Quelques Nuages
Visibilité: 7 km
Nuages details: Quelques Nuages 244 m
2014/04/25 07:00 LFRB 250700Z VRB01KT 7000 FEW008 10/10 Q1014 NOSIG
LFRK - Caen/, France
Distance de la station: NNO 306km
Mise à jour: 25/04/2014 09:00
faible pluie, Broulliard, Couvert
faible pluie, Broulliard, Couvert
 Wind from NNO
Vent: NNO 17 km/h
Température: 10°C
Wind Chill: 8°C
Point de Rosée: 10°C
Humidité: 100%
Baromètre: 1011 hPa
Récapitulatifs: faible pluie, Broulliard
Nuages: Couvert
Visibilité: 4 km
Nuages details: Couvert 152 m
2014/04/25 07:00 LFRK 250700Z AUTO 34009KT 4300 -RA BR OVC005 10/10 Q1011
 
LFMK - Carcassonne/, France
Distance de la station: S 403km
Mise à jour: 25/04/2014 09:00
Bruine Légère, Couvert
Bruine Légère, Couvert
 Wind from O
Vent: O 24 km/h
Température: 10°C
Wind Chill: 7°C
Point de Rosée: 8°C
Humidité: 88%
Baromètre: 1015 hPa
Récapitulatifs: Bruine Légère
Nuages: Couvert
Visibilité: 10 km
Nuages details: Couvert 396 m
2014/04/25 07:00 LFMK 250700Z AUTO 28013KT 9999 -RADZ OVC013 10/08 Q1015
LFMV - Caumont/, France
Distance de la station: SE 410km
Mise à jour: 25/04/2014 09:00
faible pluie, Orage
faible pluie, Orage
 Wind from ONO
Vent: ONO 7 km/h
Température: 13°C
Point de Rosée: 12°C
Humidité: 94%
Baromètre: 1011 hPa
Récapitulatifs: faible pluie
Nuages: Orage
Visibilité: 10 km
Nuages details: nuageux 579 m
Couvert 762 m
2014/04/25 07:00 LFMV 250700Z AUTO 29004KT 9999 -RA BKN019/// OVC025/// ///TCU 13/12 Q1011
 
LFBC - Cazaux/, France
Distance de la station: SO 336km
Mise à jour: 25/04/2014 09:00
Orage
Orage
 Wind from ONO
Vent: ONO 11 km/h
Température: 12°C
Point de Rosée: 10°C
Humidité: 88%
Baromètre: 1017 hPa
Nuages: Orage
Visibilité: 10 km
Nuages details: Quelques Nuages 640 m
nuageux 1097 m
nuageux 1951 m
2014/04/25 07:00 LFBC 250700Z AUTO 29006KT 250V320 9999 FEW021/// BKN036/// BKN064/// ///TCU 12/10 Q1017
LFPC - Creil/, France
Distance de la station: NNE 278km
Mise à jour: 25/04/2014 09:00
pluie, Broulliard, Orage
pluie, Broulliard, Orage
 Wind from ONO
Vent: ONO 7 km/h
Température: 12°C
Point de Rosée: 11°C
Humidité: 94%
Baromètre: 1008 hPa
Récapitulatifs: pluie, Broulliard
Nuages: Orage
Visibilité: 2 km
Nuages details: Quelques Nuages 1433 m
nuageux 1768 m
nuageux 2377 m
2014/04/25 07:00 LFPC 250700Z AUTO 30004KT 280V340 2100 RA BR FEW047/// BKN058/// BKN078/// ///TCU 12/11 Q1008
 
LFLB - Chambery/, France
Distance de la station: ESE 348km
Mise à jour: 25/04/2014 09:00
nuageux
nuageux
 Wind from variable
Vent: variable 4 km/h
Température: 13°C
Point de Rosée: 11°C
Humidité: 88%
Baromètre: 1011 hPa
Nuages: nuageux
Visibilité: 10 km
Nuages details: Quelques Nuages 1219 m
partiellement nuageux 3962 m
nuageux 6096 m
2014/04/25 07:00 LFLB 250700Z VRB02KT 9999 FEW040 SCT130 BKN200 13/11 Q1011
LFOK - Chalons/, France
Distance de la station: NE 287km
Mise à jour: 25/04/2014 09:00
partiellement nuageux
partiellement nuageux
 Wind from S
Vent: S 11 km/h
Température: 12°C
Point de Rosée: 11°C
Humidité: 94%
Baromètre: 1009 hPa
Nuages: partiellement nuageux
Visibilité: 6 km
2014/04/25 07:00 LFOK 250700Z AUTO 19006KT 6000 NSC 12/11 Q1009
 
LFOC - Chateaudun/, France
Distance de la station: N 137km
Mise à jour: 25/04/2014 09:00
faible pluie, nuageux
faible pluie, nuageux
 Wind from OSO
Vent: OSO 15 km/h
Température: 12°C
Point de Rosée: 11°C
Humidité: 94%
Baromètre: 1010 hPa
Récapitulatifs: faible pluie
Nuages: nuageux
Visibilité: 8 km
Nuages details: partiellement nuageux 91 m
nuageux 366 m
nuageux 975 m
2014/04/25 07:00 LFOC 250700Z AUTO 24008KT 8000 -RA SCT003 BKN012 BKN032 12/11 Q1010
LFLX - Chateauroux/, France
Distance de la station: NE 4km
Mise à jour: 25/04/2014 09:00
Couvert
Couvert
 Wind from OSO
Vent: OSO 22 km/h
Température: 10°C
Wind Chill: 7°C
Point de Rosée: 9°C
Humidité: 94%
Baromètre: 1012 hPa
Nuages: Couvert
Visibilité: 10 km
Nuages details: Couvert 183 m
2014/04/25 07:00 LFLX 250700Z 25012KT 9999 OVC006 10/09 Q1012 NOSIG
 
LFPG - Charles De Gaulle/, France
Distance de la station: NNE 252km
Mise à jour: 25/04/2014 09:00
faible pluie, Broulliard, nuageux
faible pluie, Broulliard, nuageux
 Wind from NNO
Vent: NNO 15 km/h
Température: 13°C
Point de Rosée: 11°C
Humidité: 88%
Baromètre: 1008 hPa
Récapitulatifs: faible pluie, Broulliard
Nuages: nuageux
Visibilité: 2 km
Nuages details: Quelques Nuages 1006 m
nuageux 2743 m
2014/04/25 07:00 LFPG 250700Z 33008KT 1500 -RA BR FEW033 BKN090 13/11 Q1008 NOSIG
LFRC - Cherbourg/, France
Distance de la station: NO 390km
Mise à jour: 25/04/2014 09:00
faible pluie, Broulliard, nuageux
faible pluie, Broulliard, nuageux
 Wind from NO
Vent: NO 11 km/h
Température: 9°C
Wind Chill: 7°C
Point de Rosée: 9°C
Humidité: 100%
Baromètre: 1012 hPa
Récapitulatifs: faible pluie, Broulliard
Nuages: nuageux
Visibilité: 3 km
Nuages details: Quelques Nuages 91 m
partiellement nuageux 396 m
nuageux 640 m
2014/04/25 07:00 LFRC 250700Z AUTO 32006KT 280V350 2500 -RA BR FEW003 SCT013 BKN021 09/09 Q1012
 
LFLC - Clermont/, France
Distance de la station: SE 163km
Mise à jour: 25/04/2014 09:00
nuageux
nuageux
 Wind from ESE
Vent: ESE 6 km/h
Température: 12°C
Point de Rosée: 10°C
Humidité: 88%
Baromètre: 1012 hPa
Nuages: nuageux
Visibilité: 10 km
Nuages details: Quelques Nuages 488 m
nuageux 1463 m
2014/04/25 07:00 LFLC 250700Z 11003KT 9999 FEW016 BKN048 12/10 Q1012 NOSIG
LFBG - Cognac/, France
Distance de la station: SO 200km
Mise à jour: 25/04/2014 09:00
nuageux
nuageux
 Wind from OSO
Vent: OSO 11 km/h
Température: 12°C
Point de Rosée: 9°C
Humidité: 82%
Baromètre: 1015 hPa
Nuages: nuageux
Visibilité: 10 km
Nuages details: partiellement nuageux 671 m
nuageux 823 m
nuageux 1067 m
2014/04/25 07:00 LFBG 250700Z AUTO 25006KT 9999 SCT022 BKN027 BKN035 12/09 Q1015
 
LFBY - Dax/, France
Distance de la station: SSO 411km
Mise à jour: 25/04/2014 09:00
nuageux
nuageux
 Wind from O
Vent: O 11 km/h
Température: 12°C
Point de Rosée: 10°C
Humidité: 88%
Baromètre: 1018 hPa
Nuages: nuageux
Visibilité: 10 km
Nuages details: Quelques Nuages 244 m
partiellement nuageux 610 m
nuageux 914 m
2014/04/25 07:00 LFBY 250700Z 27006KT 220V300 9999 FEW008 SCT020 BKN030 12/10 Q1018
LFSD - Dijon/, France
Distance de la station: ENE 261km
Mise à jour: 25/04/2014 09:00
partiellement nuageux
partiellement nuageux
 Wind from SSO
Vent: SSO 7 km/h
Température: 13°C
Point de Rosée: 11°C
Humidité: 88%
Baromètre: 1010 hPa
Nuages: partiellement nuageux
Visibilité: 10 km
2014/04/25 07:00 LFSD 250700Z AUTO 21004KT 190V250 9999 NSC 13/11 Q1010
 
LFRD - Dinard/, France
Distance de la station: NO 342km
Mise à jour: 25/04/2014 09:00
faible pluie, Couvert
faible pluie, Couvert
 Wind from NO
Vent: NO 9 km/h
Température: 10°C
Wind Chill: 9°C
Point de Rosée: 9°C
Humidité: 94%
Baromètre: 1013 hPa
Récapitulatifs: faible pluie
Nuages: Couvert
Visibilité: 10 km
Nuages details: Couvert 914 m
2014/04/25 07:00 LFRD 250700Z AUTO 31005KT 9999 -RA OVC030 10/09 Q1013
LFGJ - Dole/, France
Distance de la station: E 286km
Mise à jour: 25/04/2014 09:00
partiellement nuageux
partiellement nuageux
 Wind from OSO
Vent: OSO 9 km/h
Température: 15°C
Point de Rosée: 9°C
Humidité: 68%
Baromètre: 1010 hPa
Nuages: partiellement nuageux
Visibilité: 10 km
2014/04/25 07:00 LFGJ 250700Z AUTO 25005KT 220V290 9999 NSC 15/09 Q1010
 
LFOE - Evreux/, France
Distance de la station: N 247km
Mise à jour: 25/04/2014 09:00
faible pluie, Broulliard, Orage
faible pluie, Broulliard, Orage
 Wind from NO
Vent: NO 7 km/h
Température: 11°C
Point de Rosée: 11°C
Humidité: 100%
Baromètre: 1009 hPa
Récapitulatifs: faible pluie, Broulliard
Nuages: Orage
Visibilité: 2 km
Nuages details: Couvert 91 m
2014/04/25 07:00 LFOE 250700Z AUTO 32004KT 290V360 1700 -RA BR OVC003/// ///CB 11/11 Q1009
LFMT - Frejorgues/, France
Distance de la station: SSE 403km
Mise à jour: 25/04/2014 09:00
pluie, nuageux
pluie, nuageux
 Wind from NNO
Vent: NNO 17 km/h
Température: 13°C
Point de Rosée: 11°C
Humidité: 88%
Baromètre: 1011 hPa
Récapitulatifs: pluie
Nuages: nuageux
Visibilité: 10 km
Nuages details: partiellement nuageux 1097 m
nuageux 1615 m
nuageux 2134 m
2014/04/25 07:00 LFMT 250700Z 33009KT 9999 RA SCT036TCU BKN053 BKN070 13/11 Q1011 NOSIG
 
LFMI - Istres/, France
Distance de la station: SE 446km
Mise à jour: 25/04/2014 09:00
Orage
Orage
 Wind from NO
Vent: NO 7 km/h
Température: 14°C
Point de Rosée: 13°C
Humidité: 94%
Baromètre: 1010 hPa
Nuages: Orage
Visibilité: 10 km
Nuages details: nuageux 396 m
nuageux 1494 m
Couvert 1768 m
2014/04/25 07:00 LFMI 250700Z AUTO 32004KT 9999 BKN013/// BKN049/// OVC058/// ///TCU 14/13 Q1010
LFLS - Grenoble/, France
Distance de la station: ESE 323km
Mise à jour: 25/04/2014 09:00
partiellement nuageux
partiellement nuageux
 Wind from variable
Vent: variable 4 km/h
Température: 14°C
Point de Rosée: 9°C
Humidité: 72%
Baromètre: 1012 hPa
Nuages: partiellement nuageux
Visibilité: 10 km
Nuages details: partiellement nuageux 914 m
partiellement nuageux 2621 m
2014/04/25 07:00 LFLS 250700Z AUTO VRB02KT 9999 SCT030 SCT086 14/09 Q1012
 
LFBH - La Rochelle/, France
Distance de la station: OSO 229km
Mise à jour: 25/04/2014 09:00
nuageux
nuageux
 Wind from NO
Vent: NO 26 km/h
Température: 13°C
Point de Rosée: 10°C
Humidité: 82%
Baromètre: 1015 hPa
Nuages: nuageux
Visibilité: 10 km
Nuages details: nuageux 488 m
nuageux 671 m
2014/04/25 07:00 LFBH 250700Z AUTO 31014KT 9999 BKN016 BKN022 13/10 Q1015
LFRI - La Roche Sur Yon/, France
Distance de la station: O 233km
Mise à jour: 25/04/2014 09:00
partiellement nuageux
partiellement nuageux
 Wind from O
Vent: O 13 km/h
Température: 11°C
Point de Rosée: 10°C
Humidité: 94%
Baromètre: 1014 hPa
Nuages: partiellement nuageux
Visibilité: 10 km
Nuages details: partiellement nuageux 213 m
2014/04/25 07:00 LFRI 250700Z AUTO 28007KT 9999 SCT007 11/10 Q1014
 
LFOH - Le Havre/, France
Distance de la station: NNO 323km
Mise à jour: 25/04/2014 09:00
faible pluie, Brouillard ou brume
faible pluie, Brouillard ou brume
 Wind from N
Vent: N 17 km/h
Température: 11°C
Point de Rosée: 9°C
Humidité: 88%
Baromètre: 1010 hPa
Récapitulatifs: faible pluie, Brouillard ou brume
Visibilité: 0 km
2014/04/25 07:00 LFOH 250700Z AUTO 35009KT 0300 R23/0900N -RA FG VV/// 11/09 Q1010
LFRM - Le Mans/, France
Distance de la station: NO 166km
Mise à jour: 25/04/2014 09:00
Couvert
Couvert
 Wind from OSO
Vent: OSO 11 km/h
Température: 11°C
Point de Rosée: 10°C
Humidité: 94%
Baromètre: 1012 hPa
Nuages: Couvert
Visibilité: 8 km
Nuages details: partiellement nuageux 274 m
Couvert 457 m
2014/04/25 07:00 LFRM 250700Z AUTO 25006KT 210V280 8000 SCT009 OVC015 11/10 Q1012
 
LFRJ - Landivisiau/, France
Distance de la station: ONO 476km
Mise à jour: 25/04/2014 09:00

 Wind from O
Vent: O 6 km/h
Visibilité: 0 km
2014/04/25 07:00 LFRJ 250700Z AUTO 26003KT 0150 0100 R26/0450D R08/0375U FG VV/// 09/09 Q1015
LFRO - Lannion/, France
Distance de la station: ONO 441km
Mise à jour: 25/04/2014 09:00
Broulliard, Couvert
Broulliard, Couvert
 Wind from OSO
Vent: OSO 11 km/h
Température: 10°C
Wind Chill: 8°C
Point de Rosée: 9°C
Humidité: 94%
Baromètre: 1014 hPa
Récapitulatifs: Broulliard
Nuages: Couvert
Visibilité: 5 km
Nuages details: nuageux 122 m
Couvert 274 m
2014/04/25 07:00 LFRO 250700Z AUTO 24006KT 210V270 4700 BR BKN004 OVC009 10/09 Q1014
 
LFRL - Lanveoc/, France
Distance de la station: ONO 485km
Mise à jour: 25/04/2014 09:00
partiellement nuageux
partiellement nuageux
 Wind from N
Vent: N 6 km/h
Température: 10°C
Point de Rosée: 10°C
Humidité: 100%
Baromètre: 1015 hPa
Nuages: partiellement nuageux
Visibilité: 10 km
2014/04/25 07:00 LFRL 250700Z AUTO 01003KT 9999 NSC 10/10 Q1015
LFBL - Limoges/, France
Distance de la station: SSO 113km
Mise à jour: 25/04/2014 09:00
Couvert
Couvert
 Wind from O
Vent: O 15 km/h
Température: 8°C
Wind Chill: 5°C
Point de Rosée: 7°C
Humidité: 93%
Baromètre: 1014 hPa
Nuages: Couvert
Visibilité: 6 km
Nuages details: Couvert 122 m
2014/04/25 07:00 LFBL 250700Z AUTO 26008KT 220V290 6000 OVC004 08/07 Q1014
 
LFQQ - Lille/, France
Distance de la station: NNE 430km
Mise à jour: 25/04/2014 09:00
Broulliard, partiellement nuageux
Broulliard, partiellement nuageux
 Wind from ENE
Vent: ENE 13 km/h
Température: 13°C
Point de Rosée: 12°C
Humidité: 94%
Baromètre: 1009 hPa
Récapitulatifs: Broulliard
Nuages: partiellement nuageux
Visibilité: 3 km
2014/04/25 07:00 LFQQ 250700Z 07007KT 3000 BR NSC 13/12 Q1009 BECMG 6000 NSW
LFRH - Lorient/, France
Distance de la station: ONO 401km
Mise à jour: 25/04/2014 09:00
partiellement nuageux
partiellement nuageux
 Wind from N
Vent: N 9 km/h
Température: 10°C
Wind Chill: 9°C
Point de Rosée: 8°C
Humidité: 88%
Baromètre: 1015 hPa
Nuages: partiellement nuageux
Visibilité: 10 km
2014/04/25 07:00 LFRH 250700Z AUTO 35005KT 320V030 9999 NSC 10/08 Q1015
 
LFLY - Lyon/, France
Distance de la station: ESE 279km
Mise à jour: 25/04/2014 09:00
Orage
Orage
 Wind from OSO
Vent: OSO 11 km/h
Température: 15°C
Point de Rosée: 8°C
Humidité: 63%
Baromètre: 1011 hPa
Nuages: Orage
Visibilité: 10 km
2014/04/25 07:00 LFLY 250700Z AUTO 24006KT 9999 ///TCU 15/08 Q1011
LFLL - Lyon/Satolas, France
Distance de la station: ESE 287km
Mise à jour: 25/04/2014 09:00
nuageux
nuageux
 Wind from OSO
Vent: OSO 19 km/h
Température: 14°C
Point de Rosée: 8°C
Humidité: 67%
Baromètre: 1011 hPa
Nuages: nuageux
Visibilité: 10 km
Nuages details: Quelques Nuages 457 m
nuageux 4877 m
2014/04/25 07:00 LFLL 250700Z 25010KT 9999 FEW015 BKN160 14/08 Q1011 NOSIG
 
LFSX - Luxeuil/, France
Distance de la station: ENE 366km
Mise à jour: 25/04/2014 09:00
Orage
Orage
 Wind from variable
Vent: variable 4 km/h
Température: 13°C
Point de Rosée: 10°C
Humidité: 82%
Baromètre: 1010 hPa
Nuages: Orage
Visibilité: 10 km
2014/04/25 07:00 LFSX 250700Z AUTO VRB02KT 9999 ///TCU 13/10 Q1010
LFJR - Marce/, France
Distance de la station: NO 134km
Mise à jour: 25/04/2014 09:00
Couvert
Couvert
 Wind from O
Vent: O 13 km/h
Température: 11°C
Point de Rosée: 10°C
Humidité: 94%
Baromètre: 1012 hPa
Nuages: Couvert
Visibilité: 10 km
Nuages details: Couvert 274 m
2014/04/25 07:00 LFJR 250700Z AUTO 27007KT 9999 OVC009 11/10 Q1012
 
LFML - Marseille/, France
Distance de la station: SE 466km
Mise à jour: 25/04/2014 09:00
faible pluie, nuageux
faible pluie, nuageux
 Wind from variable
Vent: variable 4 km/h
Température: 15°C
Point de Rosée: 13°C
Humidité: 88%
Baromètre: 1010 hPa
Récapitulatifs: faible pluie
Nuages: nuageux
Visibilité: 10 km
Nuages details: Quelques Nuages 335 m
partiellement nuageux 488 m
nuageux 3962 m
2014/04/25 07:00 LFML 250700Z VRB02KT 9999 -RA FEW011 SCT016CB BKN130 15/13 Q1010 TEMPO TSRA
LFPM - Melun/, France
Distance de la station: NNE 213km
Mise à jour: 25/04/2014 09:00
Broulliard, partiellement nuageux
Broulliard, partiellement nuageux
 Wind from calm
Vent: Vent calme
Température: 13°C
Point de Rosée: 12°C
Humidité: 94%
Baromètre: 1008 hPa
Récapitulatifs: Broulliard
Nuages: partiellement nuageux
Visibilité: 4 km
2014/04/25 07:00 LFPM 250700Z AUTO 00000KT 3700 BR NSC 13/12 Q1008
 
LFJL - Metz-Nancy-Lorra/, France
Distance de la station: NE 416km
Mise à jour: 25/04/2014 09:00
partiellement nuageux
partiellement nuageux
 Wind from E
Vent: E 13 km/h
Température: 15°C
Point de Rosée: 8°C
Humidité: 63%
Baromètre: 1010 hPa
Nuages: partiellement nuageux
Visibilité: 10 km
2014/04/25 07:00 LFJL 250700Z AUTO 10007KT 070V130 9999 NSC 15/08 Q1010
LFBM - Mont-De-Marsan/, France
Distance de la station: SSO 365km
Mise à jour: 25/04/2014 09:00
faible pluie, Orage
faible pluie, Orage
 Wind from O
Vent: O 11 km/h
Température: 10°C
Wind Chill: 8°C
Point de Rosée: 10°C
Humidité: 100%
Baromètre: 1018 hPa
Récapitulatifs: faible pluie
Nuages: Orage
Visibilité: 10 km
Nuages details: nuageux 1402 m
Couvert 1646 m
2014/04/25 07:00 LFBM 250700Z AUTO 27006KT 9999 -RA BKN046/// OVC054/// ///TCU 10/10 Q1018
 
LFSO - Nancy/, France
Distance de la station: ENE 375km
Mise à jour: 25/04/2014 09:00
partiellement nuageux
partiellement nuageux
 Wind from E
Vent: E 9 km/h
Température: 14°C
Point de Rosée: 8°C
Humidité: 67%
Baromètre: 1010 hPa
Nuages: partiellement nuageux
Visibilité: 10 km
2014/04/25 07:00 LFSO 250700Z AUTO 09005KT 9999 NSC 14/08 Q1010
LFRS - Nantes/, France
Distance de la station: O 252km
Mise à jour: 25/04/2014 09:00
clair
clair
 Wind from ONO
Vent: ONO 9 km/h
Température: 11°C
Point de Rosée: 10°C
Humidité: 94%
Baromètre: 1014 hPa
Récapitulatifs: clair
Visibilité: supérieure à 10 km
2014/04/25 07:00 LFRS 250700Z 29005KT 250V310 CAVOK 11/10 Q1014 NOSIG
 
LFTW - Nimes/, France
Distance de la station: SE 402km
Mise à jour: 25/04/2014 09:00
pluie, Orage
pluie, Orage
 Wind from NNO
Vent: NNO 9 km/h
Température: 12°C
Point de Rosée: 9°C
Humidité: 82%
Baromètre: 1011 hPa
Récapitulatifs: pluie
Nuages: Orage
Visibilité: 7 km
2014/04/25 07:00 LFTW 250700Z AUTO 34005KT 7000 RA ///CB 12/09 Q1011
LFMO - Orange/, France
Distance de la station: SE 387km
Mise à jour: 25/04/2014 09:00
faible pluie, Orage
faible pluie, Orage
 Wind from O
Vent: O 7 km/h
Température: 13°C
Point de Rosée: 12°C
Humidité: 94%
Baromètre: 1011 hPa
Récapitulatifs: faible pluie
Nuages: Orage
Visibilité: 10 km
Nuages details: Quelques Nuages 732 m
partiellement nuageux 1219 m
Couvert 2134 m
2014/04/25 07:00 LFMO 250700Z AUTO 28004KT 250V310 9999 -RA FEW024/// SCT040/// OVC070/// ///CB 13/12 Q1011
 
LFOJ - Orleans/, France
Distance de la station: N 128km
Mise à jour: 25/04/2014 09:00
nuageux
nuageux
 Wind from O
Vent: O 17 km/h
Température: 12°C
Point de Rosée: 11°C
Humidité: 94%
Baromètre: 1010 hPa
Nuages: nuageux
Visibilité: 10 km
Nuages details: nuageux 122 m
nuageux 427 m
nuageux 1585 m
2014/04/25 07:00 LFOJ 250700Z AUTO 26009KT 9999 BKN004 BKN014 BKN052 12/11 Q1010
LFPB - Paris/, France
Distance de la station: NNE 246km
Mise à jour: 25/04/2014 09:00
faible pluie, Broulliard, Orage
faible pluie, Broulliard, Orage
 Wind from NNO
Vent: NNO 15 km/h
Température: 13°C
Point de Rosée: 12°C
Humidité: 94%
Baromètre: 1007 hPa
Récapitulatifs: faible pluie, Broulliard
Nuages: Orage
Visibilité: 2 km
Nuages details: Quelques Nuages 884 m
nuageux 2377 m
Couvert 2743 m
2014/04/25 07:00 LFPB 250700Z AUTO 34008KT 300V360 2200 -RA BR FEW029/// BKN078/// OVC090/// ///TCU 13/12 Q1007
 
LFPO - Paris/Orly/, France
Distance de la station: NNE 218km
Mise à jour: 25/04/2014 09:00
Broulliard, nuageux
Broulliard, nuageux
 Wind from NO
Vent: NO 6 km/h
Température: 13°C
Point de Rosée: 12°C
Humidité: 94%
Baromètre: 1008 hPa
Récapitulatifs: Broulliard
Nuages: nuageux
Visibilité: 3 km
Nuages details: nuageux 152 m
nuageux 1524 m
nuageux 3048 m
2014/04/25 07:00 LFPO 250700Z 31003KT 270V340 2700 BR BKN005 BKN050 BKN100 13/12 Q1008 TEMPO BKN012
LFMP - Perpignan/, France
Distance de la station: SSE 465km
Mise à jour: 25/04/2014 08:51
nuageux
nuageux
 Wind from ONO
Vent: ONO 48 km/h, Rafale: 69 km/h
Température: 13°C
Point de Rosée: 6°C
Humidité: 63%
Baromètre: 1011 hPa
Nuages: nuageux
Visibilité: 10 km
Nuages details: Quelques Nuages 914 m
nuageux 2469 m
nuageux 3048 m
2014/04/25 06:51 LFMP 250651Z 30026G37KT 9999 FEW030 BKN081 BKN100 13/06 Q1011
 
LFBI - Poitiers/, France
Distance de la station: OSO 108km
Mise à jour: 25/04/2014 09:00
Couvert
Couvert
 Wind from O
Vent: O 15 km/h
Température: 10°C
Wind Chill: 8°C
Point de Rosée: 8°C
Humidité: 88%
Baromètre: 1013 hPa
Nuages: Couvert
Visibilité: 10 km
Nuages details: partiellement nuageux 274 m
Couvert 1890 m
2014/04/25 07:00 LFBI 250700Z AUTO 27008KT 9999 SCT009 OVC062 10/08 Q1013
LFRQ - Quimper/, France
Distance de la station: ONO 458km
Mise à jour: 25/04/2014 09:00
partiellement nuageux
partiellement nuageux
 Wind from N
Vent: N 6 km/h
Température: 10°C
Point de Rosée: 9°C
Humidité: 94%
Baromètre: 1015 hPa
Nuages: partiellement nuageux
Visibilité: 10 km
2014/04/25 07:00 LFRQ 250700Z AUTO 35003KT 320V060 9999 NSC 10/09 Q1015
 
LFRN - Rennes/, France
Distance de la station: ONO 291km
Mise à jour: 25/04/2014 09:00
Couvert
Couvert
 Wind from ONO
Vent: ONO 17 km/h
Température: 11°C
Point de Rosée: 9°C
Humidité: 88%
Baromètre: 1013 hPa
Nuages: Couvert
Visibilité: 6 km
Nuages details: nuageux 427 m
nuageux 640 m
Couvert 823 m
2014/04/25 07:00 LFRN 250700Z AUTO 29009KT 6000 BKN014 BKN021 OVC027 11/09 Q1013
LFCR - Rodez/, France
Distance de la station: SSE 277km
Mise à jour: 25/04/2014 09:00
Bruine Légère, Broulliard, Couvert
Bruine Légère, Broulliard, Couvert
 Wind from O
Vent: O 13 km/h
Température: 8°C
Wind Chill: 6°C
Point de Rosée: 7°C
Humidité: 93%
Baromètre: 1014 hPa
Récapitulatifs: Bruine Légère, Broulliard
Nuages: Couvert
Visibilité: 3 km
Nuages details: Couvert 91 m
2014/04/25 07:00 LFCR 250700Z AUTO 26007KT 2700 -RADZ BR OVC003 08/07 Q1014
 
LFYR - Romorantin/, France
Distance de la station: N 56km
Mise à jour: 25/04/2014 09:00
faible pluie, Couvert
faible pluie, Couvert
 Wind from OSO
Vent: OSO 9 km/h
Température: 11°C
Point de Rosée: 11°C
Humidité: 100%
Baromètre: 1011 hPa
Récapitulatifs: faible pluie
Nuages: Couvert
Visibilité: 10 km
Nuages details: Couvert 91 m
2014/04/25 07:00 LFYR 250700Z AUTO 25005KT 220V280 9999 -RA OVC003 11/11 Q1011
LFOP - Rouen/, France
Distance de la station: N 286km
Mise à jour: 25/04/2014 09:00
faible pluie, Broulliard, Orage
faible pluie, Broulliard, Orage
 Wind from N
Vent: N 7 km/h
Température: 11°C
Point de Rosée: 10°C
Humidité: 94%
Baromètre: 1009 hPa
Récapitulatifs: faible pluie, Broulliard
Nuages: Orage
Visibilité: 1 km
Nuages details: nuageux 61 m
nuageux 762 m
nuageux 1158 m
2014/04/25 07:00 LFOP 250700Z AUTO 36004KT 320V040 1100 R22/1900N -RA BR BKN002/// BKN025/// BKN038/// ///CB 11/10 Q1009
 
LFMY - Salon/, France
Distance de la station: SE 446km
Mise à jour: 25/04/2014 09:00
faible pluie, Orage
faible pluie, Orage
 Wind from NNE
Vent: NNE 9 km/h
Température: 14°C
Point de Rosée: 13°C
Humidité: 94%
Baromètre: 1011 hPa
Récapitulatifs: faible pluie
Nuages: Orage
Visibilité: 10 km
Nuages details: Quelques Nuages 732 m
nuageux 1036 m
nuageux 1280 m
2014/04/25 07:00 LFMY 250700Z AUTO 03005KT 350V060 9999 -RA FEW024/// BKN034/// BKN042/// ///TCU 14/13 Q1011
LFST - Strasbourg/, France
Distance de la station: ENE 483km
Mise à jour: 25/04/2014 09:00
partiellement nuageux
partiellement nuageux
 Wind from NNO
Vent: NNO 9 km/h
Température: 15°C
Point de Rosée: 9°C
Humidité: 68%
Baromètre: 1010 hPa
Nuages: partiellement nuageux
Visibilité: 10 km
2014/04/25 07:00 LFST 250700Z AUTO 33005KT 300V010 9999 NSC 15/09 Q1010
 
LFRT - Saint-Brieuc/, France
Distance de la station: ONO 388km
Mise à jour: 25/04/2014 09:00
Quelques Nuages
Quelques Nuages
 Wind from O
Vent: O 17 km/h
Température: 10°C
Wind Chill: 8°C
Point de Rosée: 9°C
Humidité: 94%
Baromètre: 1014 hPa
Nuages: Quelques Nuages
Visibilité: 6 km
Nuages details: Quelques Nuages 122 m
2014/04/25 07:00 LFRT 250700Z AUTO 28009KT 6000 FEW004 10/09 Q1014
LFSI - St. Dizier/, France
Distance de la station: NE 313km
Mise à jour: 25/04/2014 09:00
partiellement nuageux
partiellement nuageux
 Wind from S
Vent: S 7 km/h
Température: 16°C
Point de Rosée: 10°C
Humidité: 68%
Baromètre: 1009 hPa
Nuages: partiellement nuageux
Visibilité: 10 km
2014/04/25 07:00 LFSI 250700Z AUTO 19004KT 170V240 9999 NSC 16/10 Q1009
 
LFMH - St Etienne/, France
Distance de la station: SE 247km
Mise à jour: 25/04/2014 09:00
faible pluie, nuageux
faible pluie, nuageux
 Wind from calm
Vent: Vent calme
Température: 11°C
Point de Rosée: 9°C
Humidité: 88%
Baromètre: 1012 hPa
Récapitulatifs: faible pluie
Nuages: nuageux
Visibilité: 10 km
Nuages details: partiellement nuageux 610 m
nuageux 1402 m
2014/04/25 07:00 LFMH 250700Z 00000KT 9999 -RA SCT020 BKN046 11/09 Q1012 NOSIG
LFRG - St Gatien/, France
Distance de la station: NNO 305km
Mise à jour: 25/04/2014 09:00
pluie, Broulliard, Orage
pluie, Broulliard, Orage
 Wind from variable
Vent: variable 6 km/h
Température: 11°C
Point de Rosée: 10°C
Humidité: 94%
Baromètre: 1010 hPa
Récapitulatifs: pluie, Broulliard
Nuages: Orage
Visibilité: 1 km
Nuages details: Couvert 61 m
2014/04/25 07:00 LFRG 250700Z AUTO VRB03KT 1300 R12/1500D RA BR OVC002/// ///TCU 11/10 Q1010
 
LFRZ - St. Nazaire/, France
Distance de la station: ONO 297km
Mise à jour: 25/04/2014 09:00
partiellement nuageux
partiellement nuageux
 Wind from ONO
Vent: ONO 15 km/h
Température: 12°C
Point de Rosée: 10°C
Humidité: 88%
Baromètre: 1014 hPa
Nuages: partiellement nuageux
Visibilité: 10 km
2014/04/25 07:00 LFRZ 250700Z AUTO 29008KT 260V320 9999 NSC 12/10 Q1014
LFLN - Saint Yan/, France
Distance de la station: ESE 184km
Mise à jour: 25/04/2014 09:00
faible pluie, Couvert
faible pluie, Couvert
 Wind from OSO
Vent: OSO 7 km/h
Température: 12°C
Point de Rosée: 10°C
Humidité: 88%
Baromètre: 1012 hPa
Récapitulatifs: faible pluie
Nuages: Couvert
Visibilité: 10 km
Nuages details: nuageux 274 m
Couvert 762 m
2014/04/25 07:00 LFLN 250700Z AUTO 25004KT 200V280 9999 -RA BKN009 OVC025 12/10 Q1012
 
LFBT - Tarbes/, France
Distance de la station: SSO 427km
Mise à jour: 25/04/2014 09:00
faible pluie, Orage
faible pluie, Orage
 Wind from OSO
Vent: OSO 22 km/h
Température: 7°C
Wind Chill: 4°C
Point de Rosée: 6°C
Humidité: 93%
Baromètre: 1018 hPa
Récapitulatifs: faible pluie
Nuages: Orage
Visibilité: 10 km
Nuages details: Quelques Nuages 488 m
nuageux 1402 m
Couvert 1585 m
2014/04/25 07:00 LFBT 250700Z AUTO 24012KT 9999 -RA FEW016/// BKN046/// OVC052/// ///TCU 07/06 Q1018
LFSL - Toul/, France
Distance de la station: NE 356km
Mise à jour: 25/04/2014 09:00
Couvert
Couvert
 Wind from ONO
Vent: ONO 13 km/h
Température: 9°C
Wind Chill: 7°C
Point de Rosée: 7°C
Humidité: 87%
Baromètre: 1015 hPa
Nuages: Couvert
Visibilité: 10 km
Nuages details: nuageux 213 m
Couvert 335 m
2014/04/25 07:00 LFSL 250700Z AUTO 29007KT 250V320 9999 BKN007 OVC011 09/07 Q1015
 
LFBO - Toulouse/, France
Distance de la station: S 357km
Mise à jour: 25/04/2014 09:00
Couvert
Couvert
 Wind from O
Vent: O 19 km/h
Température: 10°C
Wind Chill: 7°C
Point de Rosée: 9°C
Humidité: 94%
Baromètre: 1017 hPa
Nuages: Couvert
Visibilité: 10 km
Nuages details: nuageux 335 m
nuageux 579 m
Couvert 762 m
2014/04/25 07:00 LFBO 250700Z AUTO 27010KT 9999 BKN011 BKN019 OVC025 10/09 Q1017
LFOT - Tours/, France
Distance de la station: NO 100km
Mise à jour: 25/04/2014 09:00
Couvert
Couvert
 Wind from OSO
Vent: OSO 11 km/h
Température: 11°C
Point de Rosée: 10°C
Humidité: 94%
Baromètre: 1011 hPa
Nuages: Couvert
Visibilité: 6 km
Nuages details: Couvert 213 m
2014/04/25 07:00 LFOT 250700Z AUTO 25006KT 220V290 6000 OVC007 11/10 Q1011
 
LFPN - Toussus Le Noble/, France
Distance de la station: N 217km
Mise à jour: 25/04/2014 09:00
faible pluie, Broulliard, Orage
faible pluie, Broulliard, Orage
 Wind from NO
Vent: NO 7 km/h
Température: 13°C
Point de Rosée: 12°C
Humidité: 94%
Baromètre: 1008 hPa
Récapitulatifs: faible pluie, Broulliard
Nuages: Orage
Visibilité: 2 km
Nuages details: Couvert 91 m
2014/04/25 07:00 LFPN 250700Z AUTO 31004KT 2000 -RA BR OVC003/// ///CB 13/12 Q1008
LFPV - Villacoublay/, France
Distance de la station: N 220km
Mise à jour: 25/04/2014 09:00
faible pluie, Broulliard, Orage
faible pluie, Broulliard, Orage
 Wind from NNO
Vent: NNO 9 km/h
Température: 13°C
Point de Rosée: 12°C
Humidité: 94%
Baromètre: 1008 hPa
Récapitulatifs: faible pluie, Broulliard
Nuages: Orage
Visibilité: 2 km
Nuages details: nuageux 91 m
nuageux 945 m
Couvert 2012 m
2014/04/25 07:00 LFPV 250700Z AUTO 34005KT 1800 -RA BR BKN003/// BKN031/// OVC066/// ///TCU 13/12 Q1008